Time;durP1;ratioP1;P1;durP2;ratioP2;P2;SDS_P1;SDS_P2;PMS_P1;PMS_P2;Temp;Humidity;BMP_temperature;BMP_pressure;BME280_temperature;BME280_humidity;BME280_pressure;Samples;Min_cycle;Max_cycle;Signal;HPM_P1;HPM_P2
2022/01/06 00:01:06;;;;;;;0.90;0.90;;;;;;;3.94;68.69;98838.83;103336;1278;139107;-66
2022/01/06 00:03:35;;;;;;;1.20;1.20;;;;;;;3.90;68.96;98831.73;103423;1277;109672;-66
2022/01/06 00:06:06;;;;;;;1.10;1.10;;;;;;;3.86;69.23;98831.29;103499;1277;95246;-67
2022/01/06 00:08:36;;;;;;;1.10;1.10;;;;;;;3.98;69.32;98829.95;103418;1278;138563;-66
2022/01/06 00:11:08;;;;;;;1.00;1.00;;;;;;;4.09;69.04;98831.62;103516;1278;109252;-66
2022/01/06 00:24:20;;;;;;;1.00;1.00;;;;;;;3.84;70.24;98828.52;103403;1277;110107;-65
2022/01/06 00:26:49;;;;;;;1.10;1.10;;;;;;;3.91;69.76;98829.06;103367;1277;139097;-66
2022/01/06 00:29:18;;;;;;;1.00;1.00;;;;;;;3.86;69.83;98826.56;103466;1277;95176;-65
2022/01/06 00:31:47;;;;;;;0.90;0.90;;;;;;;3.86;69.98;98824.46;103309;1277;138197;-66
2022/01/06 00:34:15;;;;;;;1.00;1.00;;;;;;;3.90;69.72;98828.23;103668;1277;110489;-67
2022/01/06 00:36:43;;;;;;;0.90;0.90;;;;;;;3.87;69.81;98827.58;103519;1277;95559;-66
2022/01/06 00:39:11;;;;;;;1.20;1.20;;;;;;;3.82;69.59;98829.64;103330;1277;138285;-68
2022/01/06 00:41:39;;;;;;;0.90;0.90;;;;;;;3.78;69.76;98829.73;103546;1278;107245;-68
2022/01/06 00:44:07;;;;;;;1.00;1.00;;;;;;;3.74;69.80;98825.98;103333;1278;137806;-66
2022/01/06 00:46:36;;;;;;;1.00;1.00;;;;;;;3.70;69.69;98824.48;103467;1277;95211;-66
2022/01/06 00:49:04;;;;;;;1.10;1.10;;;;;;;3.72;69.63;98825.50;103473;1277;95826;-65
2022/01/06 00:51:32;;;;;;;1.00;1.00;;;;;;;3.83;69.37;98824.54;103384;1278;138174;-66
2022/01/06 00:54:00;;;;;;;1.00;1.00;;;;;;;3.91;69.39;98822.41;103422;1277;109863;-65
2022/01/06 00:56:27;;;;;;;1.00;1.00;;;;;;;3.92;69.35;98822.55;103383;1277;137869;-65
2022/01/06 00:58:55;;;;;;;1.00;1.00;;;;;;;3.86;69.31;98821.64;103492;1278;95250;-66
2022/01/06 01:01:23;;;;;;;0.90;0.90;;;;;;;3.86;69.20;98824.09;103360;1277;138453;-66
2022/01/06 01:03:51;;;;;;;0.90;0.90;;;;;;;3.88;69.36;98822.13;103432;1277;109686;-66
2022/01/06 01:06:19;;;;;;;0.90;0.90;;;;;;;3.83;69.33;98819.60;103472;1277;95719;-66
2022/01/06 01:08:47;;;;;;;1.00;1.00;;;;;;;3.80;69.39;98822.47;103399;1277;137959;-65
2022/01/06 01:11:14;;;;;;;0.90;0.90;;;;;;;3.91;69.44;98822.75;103456;1277;109110;-66
2022/01/06 01:14:07;;;;;;;0.90;0.90;;;;;;;4.01;69.19;98827.58;103378;1278;140493;-66
2022/01/06 01:16:35;;;;;;;0.90;0.90;;;;;;;4.08;68.97;98823.91;103454;1277;95732;-66
2022/01/06 01:19:10;;;;;;;1.00;1.00;;;;;;;4.11;69.22;98824.88;103501;1277;95227;-66
2022/01/06 01:21:38;;;;;;;0.90;0.90;;;;;;;4.15;68.74;98821.26;103578;1277;138209;-66
2022/01/06 01:24:06;;;;;;;0.90;0.90;;;;;;;4.18;68.76;98820.67;103529;1277;110609;-65
2022/01/06 01:26:34;;;;;;;0.90;0.90;;;;;;;4.23;68.76;98823.01;103941;1277;138267;-66
2022/01/06 01:29:03;;;;;;;1.00;1.00;;;;;;;4.19;68.66;98822.23;103479;1277;95851;-65
2022/01/06 01:31:36;;;;;;;1.00;1.00;;;;;;;4.20;68.90;98819.54;103531;1277;138920;-66
2022/01/06 01:34:09;;;;;;;0.90;0.90;;;;;;;4.16;68.85;98813.15;103634;1277;110385;-64
2022/01/06 01:36:36;;;;;;;1.00;1.00;;;;;;;4.21;68.98;98813.38;103562;1277;95706;-66
2022/01/06 01:39:05;;;;;;;1.00;1.00;;;;;;;4.16;69.01;98810.52;103388;1277;137922;-65
2022/01/06 01:41:33;;;;;;;0.90;0.90;;;;;;;4.19;69.08;98805.00;103467;1277;108842;-66
2022/01/06 01:44:01;;;;;;;0.90;0.90;;;;;;;4.17;69.11;98809.10;103344;1277;138179;-64
2022/01/06 01:46:30;;;;;;;1.00;1.00;;;;;;;4.16;69.17;98810.70;104065;1277;95258;-66
2022/01/06 01:51:44;;;;;;;0.90;0.90;;;;;;;4.16;69.68;98818.95;103368;1277;138370;-65
2022/01/06 01:54:12;;;;;;;0.90;0.90;;;;;;;4.18;69.98;98818.90;103457;1277;109790;-66
2022/01/06 01:56:40;;;;;;;1.00;1.00;;;;;;;4.22;70.21;98820.39;103396;1277;139406;-66
2022/01/06 01:59:08;;;;;;;0.90;0.90;;;;;;;4.26;70.40;98821.85;103623;1278;95236;-65
2022/01/06 02:01:36;;;;;;;0.90;0.90;;;;;;;4.33;70.60;98816.40;103458;1277;138908;-65
2022/01/06 02:04:04;;;;;;;0.90;0.90;;;;;;;4.38;70.43;98813.83;103498;1277;109831;-65
2022/01/06 02:06:32;;;;;;;0.90;0.90;;;;;;;4.38;70.49;98816.81;103500;1277;96717;-66
2022/01/06 02:09:00;;;;;;;1.00;1.00;;;;;;;4.35;70.51;98819.34;103388;1277;138497;-66
2022/01/06 02:11:28;;;;;;;0.90;0.90;;;;;;;4.34;70.63;98823.08;103480;1277;108976;-65
2022/01/06 02:13:58;;;;;;;0.80;0.80;;;;;;;4.38;70.74;98818.94;103377;1277;139093;-65
2022/01/06 02:16:27;;;;;;;0.90;0.90;;;;;;;4.41;70.75;98820.25;103473;1277;95414;-64
2022/01/06 02:18:55;;;;;;;0.90;0.90;;;;;;;4.45;70.50;98817.69;103582;1277;95880;-65
2022/01/06 02:21:23;;;;;;;0.90;0.90;;;;;;;4.44;70.28;98814.89;103067;1277;357438;-66
2022/01/06 02:23:50;;;;;;;0.90;0.90;;;;;;;4.46;70.36;98815.01;103486;1277;110159;-66
2022/01/06 02:26:18;;;;;;;0.90;0.90;;;;;;;4.51;70.34;98818.91;103423;1277;137792;-65
2022/01/06 02:28:46;;;;;;;0.80;0.80;;;;;;;4.48;70.40;98817.05;103479;1277;95645;-66
2022/01/06 02:31:14;;;;;;;0.90;0.90;;;;;;;4.51;70.26;98818.21;103459;1277;108833;-66
2022/01/06 02:33:42;;;;;;;0.90;0.90;;;;;;;4.58;70.51;98819.80;103566;1277;138611;-65
2022/01/06 02:36:10;;;;;;;0.80;0.80;;;;;;;4.61;70.12;98816.20;103468;1277;95263;-65
2022/01/06 02:38:38;;;;;;;1.00;1.00;;;;;;;4.60;69.99;98817.64;103415;1277;137591;-65
2022/01/06 02:41:05;;;;;;;0.90;0.90;;;;;;;4.61;70.13;98819.52;103449;1277;108855;-65
2022/01/06 02:43:35;;;;;;;0.80;0.80;;;;;;;4.65;70.38;98820.98;103420;1277;138649;-66
2022/01/06 02:46:02;;;;;;;0.90;0.90;;;;;;;4.71;70.40;98818.57;103879;1277;95753;-66
2022/01/06 02:48:31;;;;;;;0.90;0.90;;;;;;;4.71;70.17;98815.73;103522;1277;96066;-66
2022/01/06 02:50:58;;;;;;;0.90;0.90;;;;;;;4.76;70.01;98819.65;103386;1277;137958;-64
2022/01/06 02:53:26;;;;;;;0.90;0.90;;;;;;;4.78;69.89;98816.59;103473;1277;110405;-66
2022/01/06 02:55:54;;;;;;;0.80;0.80;;;;;;;4.75;69.85;98806.30;103377;1277;138678;-65
2022/01/06 02:58:42;;;;;;;0.90;0.90;;;;;;;4.70;69.72;98812.42;103490;1277;95649;-63
2022/01/06 03:01:09;;;;;;;0.90;0.90;;;;;;;4.66;70.13;98809.02;103496;1277;108823;-66
2022/01/06 03:03:38;;;;;;;0.90;0.90;;;;;;;4.68;69.97;98807.38;103375;1277;139129;-64
2022/01/06 03:06:05;;;;;;;0.80;0.80;;;;;;;4.73;70.08;98807.27;103508;1277;95765;-65
2022/01/06 03:08:34;;;;;;;1.00;1.00;;;;;;;4.70;69.76;98814.89;103353;1277;138093;-65
2022/01/06 03:11:02;;;;;;;0.90;0.90;;;;;;;4.63;70.10;98816.67;103499;1277;108888;-66
2022/01/06 03:13:30;;;;;;;0.90;0.90;;;;;;;4.62;70.35;98819.67;103329;1278;139134;-65
2022/01/06 03:15:58;;;;;;;0.80;0.80;;;;;;;4.60;70.25;98819.73;103528;1279;96666;-66
2022/01/06 03:18:26;;;;;;;0.90;0.90;;;;;;;4.62;70.47;98827.95;103463;1277;95659;-65
2022/01/06 03:20:53;;;;;;;0.90;0.90;;;;;;;4.62;70.56;98828.98;103445;1279;138506;-66
2022/01/06 03:23:21;;;;;;;0.90;0.90;;;;;;;4.63;70.53;98831.25;103454;1277;109727;-65
2022/01/06 03:25:49;;;;;;;0.90;0.90;;;;;;;4.62;70.54;98831.63;103381;1277;139566;-64
2022/01/06 03:28:16;;;;;;;0.80;0.80;;;;;;;4.58;70.30;98832.80;103509;1277;95268;-65
2022/01/06 03:30:44;;;;;;;0.90;0.90;;;;;;;4.55;70.74;98827.77;103466;1277;108760;-64
2022/01/06 03:33:12;;;;;;;0.90;0.90;;;;;;;4.58;70.81;98835.42;103350;1277;138662;-65
2022/01/06 03:35:40;;;;;;;0.80;0.80;;;;;;;4.68;70.91;98837.27;103516;1277;95586;-65
2022/01/06 03:38:07;;;;;;;0.90;0.90;;;;;;;4.70;70.56;98837.92;103399;1278;138684;-66
2022/01/06 03:40:35;;;;;;;0.90;0.90;;;;;;;4.70;70.54;98839.86;103536;1277;108913;-65
2022/01/06 03:43:03;;;;;;;0.90;0.90;;;;;;;4.73;70.64;98841.89;103608;1277;109683;-65
2022/01/06 03:45:32;;;;;;;1.00;1.00;;;;;;;4.73;70.42;98843.83;103456;1277;139049;-64
2022/01/06 03:48:03;;;;;;;0.90;0.90;;;;;;;4.74;70.59;98847.65;103608;1277;95248;-66
2022/01/06 03:50:31;;;;;;;0.90;0.90;;;;;;;4.72;70.72;98845.27;103551;1275;138102;-66
2022/01/06 03:52:59;;;;;;;0.90;0.90;;;;;;;4.73;71.05;98845.23;103507;1278;109814;-66
2022/01/06 03:55:27;;;;;;;0.90;0.90;;;;;;;4.79;70.84;98849.11;103388;1277;139226;-65
2022/01/06 03:57:55;;;;;;;0.90;0.90;;;;;;;4.82;70.84;98852.18;103507;1278;95784;-66
2022/01/06 04:00:23;;;;;;;0.80;0.80;;;;;;;4.79;70.72;98857.18;103450;1277;108941;-66
2022/01/06 04:02:51;;;;;;;0.90;0.90;;;;;;;4.76;70.63;98859.20;103371;1278;138650;-63
2022/01/06 04:05:19;;;;;;;0.90;0.90;;;;;;;4.80;70.59;98856.28;103558;1277;95212;-63
2022/01/06 04:07:47;;;;;;;0.80;0.80;;;;;;;4.89;70.46;98857.09;103415;1278;138700;-66
2022/01/06 04:10:15;;;;;;;0.80;0.80;;;;;;;4.91;70.18;98856.34;103479;1278;108688;-66
2022/01/06 04:12:42;;;;;;;0.90;0.90;;;;;;;4.92;70.13;98862.27;103472;1277;109734;-65
2022/01/06 04:15:13;;;;;;;0.80;0.80;;;;;;;4.92;70.41;98864.73;103365;1277;139136;-65
2022/01/06 04:17:42;;;;;;;0.80;0.80;;;;;;;4.94;70.35;98865.20;103702;1278;95230;-65
2022/01/06 04:20:11;;;;;;;0.90;0.90;;;;;;;4.92;70.50;98870.91;103394;1277;138351;-66
2022/01/06 04:22:40;;;;;;;0.90;0.90;;;;;;;4.83;70.61;98870.08;103987;1277;109531;-65
2022/01/06 04:25:08;;;;;;;0.90;0.90;;;;;;;4.80;71.01;98872.12;103496;1279;95243;-65
2022/01/06 04:27:36;;;;;;;0.80;0.80;;;;;;;4.80;71.26;98873.49;103364;1278;139014;-66
2022/01/06 04:30:06;;;;;;;0.90;0.90;;;;;;;4.78;71.22;98874.44;103448;1277;108807;-66
2022/01/06 04:32:34;;;;;;;0.80;0.80;;;;;;;4.72;71.55;98879.19;103422;1277;138545;-67
2022/01/06 04:35:03;;;;;;;0.80;0.80;;;;;;;4.67;71.78;98882.98;103666;1277;95251;-66
2022/01/06 04:37:31;;;;;;;0.80;0.80;;;;;;;4.67;71.69;98885.30;103365;1277;139659;-66
2022/01/06 04:39:59;;;;;;;0.80;0.80;;;;;;;4.65;71.92;98887.98;103470;1278;108915;-65
2022/01/06 04:42:27;;;;;;;0.90;0.90;;;;;;;4.59;71.98;98887.98;103474;1277;109707;-65
2022/01/06 04:44:55;;;;;;;0.90;0.90;;;;;;;4.58;72.14;98895.03;103362;1277;139108;-66
2022/01/06 04:47:23;;;;;;;0.80;0.80;;;;;;;4.62;72.01;98891.04;103471;1277;95234;-64
2022/01/06 04:49:50;;;;;;;0.80;0.80;;;;;;;4.65;71.87;98895.16;103440;1277;138575;-66
2022/01/06 04:52:18;;;;;;;0.80;0.80;;;;;;;4.67;71.89;98893.38;103533;1277;110076;-66
2022/01/06 04:54:46;;;;;;;0.90;0.90;;;;;;;4.67;72.06;98896.36;103834;1277;95217;-65
2022/01/06 04:57:14;;;;;;;0.80;0.80;;;;;;;4.71;72.07;98901.90;103340;1277;138480;-65
2022/01/06 04:59:42;;;;;;;0.80;0.80;;;;;;;4.80;72.02;98905.86;103521;1278;108889;-65
2022/01/06 05:02:09;;;;;;;0.80;0.80;;;;;;;4.81;71.78;98903.90;103377;1277;139353;-67
2022/01/06 05:04:37;;;;;;;1.00;1.00;;;;;;;4.78;71.93;98908.73;103528;1277;95832;-66
2022/01/06 05:07:06;;;;;;;0.80;0.80;;;;;;;4.76;71.95;98908.96;103558;1277;95566;-65
2022/01/06 05:09:33;;;;;;;0.80;0.80;;;;;;;4.78;72.04;98913.65;103398;1278;138801;-65
2022/01/06 05:12:01;;;;;;;0.90;0.90;;;;;;;4.81;72.05;98913.75;103455;1277;109223;-65
2022/01/06 05:14:29;;;;;;;0.80;0.80;;;;;;;4.75;72.09;98917.77;103393;1278;138710;-66
2022/01/06 05:16:57;;;;;;;0.90;0.90;;;;;;;4.72;72.10;98916.98;103497;1277;95507;-65
2022/01/06 05:19:25;;;;;;;0.90;0.90;;;;;;;4.73;72.36;98917.32;103483;1277;108810;-65
2022/01/06 05:21:53;;;;;;;0.80;0.80;;;;;;;4.78;72.30;98915.59;103391;1277;138210;-65
2022/01/06 05:24:23;;;;;;;0.80;0.80;;;;;;;4.76;72.13;98919.34;103441;1277;95544;-66
2022/01/06 05:26:54;;;;;;;0.90;0.90;;;;;;;4.75;72.23;98917.23;103324;1277;138356;-65
2022/01/06 05:29:22;;;;;;;0.90;0.90;;;;;;;4.74;72.02;98917.81;103442;1277;108859;-65
2022/01/06 05:31:50;;;;;;;0.80;0.80;;;;;;;4.70;72.12;98916.15;103331;1277;138963;-63
2022/01/06 05:34:18;;;;;;;0.80;0.80;;;;;;;4.71;72.35;98919.98;103494;1277;96407;-65
2022/01/06 05:36:46;;;;;;;0.90;0.90;;;;;;;4.68;72.21;98918.64;103467;1277;95313;-65
2022/01/06 05:39:14;;;;;;;0.80;0.80;;;;;;;4.70;72.05;98926.19;103342;1277;143146;-63
2022/01/06 05:41:42;;;;;;;0.80;0.80;;;;;;;4.73;71.64;98923.82;103582;1278;109769;-65
2022/01/06 05:44:10;;;;;;;0.80;0.80;;;;;;;4.67;71.45;98932.58;103426;1277;138422;-65
2022/01/06 05:46:38;;;;;;;0.90;0.90;;;;;;;4.63;71.53;98933.56;103413;1277;95231;-66
2022/01/06 05:49:06;;;;;;;0.90;0.90;;;;;;;4.64;71.71;98934.23;103440;1277;108834;-65
2022/01/06 05:51:34;;;;;;;0.90;0.90;;;;;;;4.66;71.49;98939.46;103362;1277;138525;-65
2022/01/06 05:54:01;;;;;;;0.90;0.90;;;;;;;4.64;71.35;98947.60;103538;1277;95864;-64
2022/01/06 05:56:29;;;;;;;1.00;1.00;;;;;;;4.59;71.26;98952.29;103397;1278;137972;-65
2022/01/06 05:58:57;;;;;;;0.90;0.90;;;;;;;4.60;71.30;98961.42;103398;1277;108867;-66
2022/01/06 06:01:25;;;;;;;0.90;0.90;;;;;;;4.59;71.18;98964.06;103629;1277;109529;-63
2022/01/06 06:03:55;;;;;;;0.90;0.90;;;;;;;4.58;71.10;98968.31;103385;1277;139304;-65
2022/01/06 06:06:22;;;;;;;0.90;0.90;;;;;;;4.59;71.15;98974.61;103461;1277;95652;-65
2022/01/06 06:08:50;;;;;;;0.90;0.90;;;;;;;4.62;71.17;98979.83;103368;1277;138556;-65
2022/01/06 06:11:18;;;;;;;0.90;0.90;;;;;;;4.60;71.32;98974.61;103446;1277;109746;-65
2022/01/06 06:13:45;;;;;;;0.90;0.90;;;;;;;4.60;71.32;98977.77;103424;1277;138345;-66
2022/01/06 06:16:13;;;;;;;1.00;1.00;;;;;;;4.62;71.21;98984.92;103500;1279;95868;-65
2022/01/06 06:18:41;;;;;;;0.90;0.90;;;;;;;4.57;70.99;98990.84;103531;1277;108808;-66
2022/01/06 06:21:09;;;;;;;0.80;0.80;;;;;;;4.52;71.02;98995.00;103330;1278;138885;-65
2022/01/06 06:23:37;;;;;;;1.00;1.00;;;;;;;4.49;71.25;98992.27;103506;1277;95252;-65
2022/01/06 06:26:04;;;;;;;0.90;0.90;;;;;;;4.51;71.29;98998.01;103380;1277;138587;-65
2022/01/06 06:28:32;;;;;;;0.90;0.90;;;;;;;4.52;71.22;99000.98;103571;1277;108893;-65
2022/01/06 06:31:00;;;;;;;0.90;0.90;;;;;;;4.59;71.17;99006.61;103490;1277;108697;-66
2022/01/06 06:33:28;;;;;;;1.00;1.00;;;;;;;4.70;71.23;99010.38;103479;1278;138762;-65
2022/01/06 06:35:55;;;;;;;0.90;0.90;;;;;;;4.73;70.86;99021.23;103539;1277;95462;-66
2022/01/06 06:38:23;;;;;;;1.00;1.00;;;;;;;4.71;70.97;99021.96;103374;1277;139045;-65
2022/01/06 06:40:51;;;;;;;0.90;0.90;;;;;;;4.72;70.80;99025.29;103419;1277;109667;-66
2022/01/06 06:43:19;;;;;;;0.80;0.80;;;;;;;4.74;70.86;99030.35;103661;1278;97338;-63
2022/01/06 06:45:47;;;;;;;0.90;0.90;;;;;;;4.73;70.83;99029.48;103470;1277;137863;-66
2022/01/06 06:48:15;;;;;;;0.80;0.80;;;;;;;4.72;70.59;99033.73;103485;1278;109150;-66
2022/01/06 06:50:43;;;;;;;0.80;0.80;;;;;;;4.72;70.12;99037.94;103348;1277;138746;-65
2022/01/06 06:53:11;;;;;;;0.90;0.90;;;;;;;4.71;70.34;99042.20;103508;1278;95853;-66
2022/01/06 06:55:39;;;;;;;0.90;0.90;;;;;;;4.72;70.41;99050.78;103436;1277;138242;-65
2022/01/06 06:58:07;;;;;;;1.00;1.00;;;;;;;4.71;70.38;99053.27;103463;1277;108811;-66
2022/01/06 07:00:34;;;;;;;0.90;0.90;;;;;;;4.72;70.30;99054.45;103455;1277;109346;-65
2022/01/06 07:03:02;;;;;;;0.90;0.90;;;;;;;4.73;69.68;99061.30;103400;1277;138422;-65
2022/01/06 07:05:31;;;;;;;0.90;0.90;;;;;;;4.73;69.43;99065.36;103523;1277;95284;-65
2022/01/06 07:07:58;;;;;;;1.00;1.00;;;;;;;4.64;68.65;99074.51;103358;1277;138895;-66
2022/01/06 07:10:26;;;;;;;0.90;0.90;;;;;;;4.55;68.53;99072.97;103514;1277;110253;-66
2022/01/06 07:12:54;;;;;;;0.90;0.90;;;;;;;4.58;68.66;99076.94;103500;1277;95626;-65
2022/01/06 07:15:22;;;;;;;0.80;0.80;;;;;;;4.55;68.01;99082.45;103406;1277;138025;-65
2022/01/06 07:17:50;;;;;;;1.00;1.00;;;;;;;4.48;68.34;99093.70;103507;1277;108840;-66
2022/01/06 07:20:18;;;;;;;0.90;0.90;;;;;;;4.49;68.47;99099.46;103392;1277;138691;-65
2022/01/06 07:22:46;;;;;;;0.80;0.80;;;;;;;4.54;68.61;99103.23;103459;1277;95253;-65
2022/01/06 07:25:14;;;;;;;0.90;0.90;;;;;;;4.60;68.45;99107.67;103445;1278;95650;-66
2022/01/06 07:27:42;;;;;;;0.90;0.90;;;;;;;4.65;68.47;99106.85;103319;1277;137561;-65
2022/01/06 07:30:10;;;;;;;0.90;0.90;;;;;;;4.66;68.35;99115.44;103497;1277;109682;-66
2022/01/06 07:32:46;;;;;;;0.80;0.80;;;;;;;4.66;68.03;99113.17;103419;1277;139084;-65
2022/01/06 07:35:15;;;;;;;0.90;0.90;;;;;;;4.60;67.89;99117.86;103736;1277;95781;-66
2022/01/06 07:37:43;;;;;;;0.90;0.90;;;;;;;4.56;67.59;99120.59;103369;1277;138468;-66
2022/01/06 07:40:16;;;;;;;1.00;1.00;;;;;;;4.45;67.39;99127.14;103462;1277;110441;-69
2022/01/06 07:42:44;;;;;;;1.00;1.00;;;;;;;4.43;67.91;99131.77;103517;1277;96562;-66
2022/01/06 07:45:12;;;;;;;1.00;1.00;;;;;;;4.52;68.02;99133.86;103465;1278;138215;-65
2022/01/06 07:47:55;;;;;;;0.90;0.90;;;;;;;4.56;67.98;99136.23;103598;1277;108835;-65
2022/01/06 07:50:25;;;;;;;1.10;1.10;;;;;;;4.48;67.85;99142.52;103552;1277;137788;-66
2022/01/06 07:52:54;;;;;;;1.00;1.00;;;;;;;4.43;67.78;99145.83;103557;1277;95650;-65
2022/01/06 07:55:22;;;;;;;0.90;0.90;;;;;;;4.45;67.87;99147.19;103504;1277;95244;-65
2022/01/06 07:57:50;;;;;;;1.00;1.00;;;;;;;4.40;67.67;99148.53;103393;1278;137865;-65
2022/01/06 08:00:19;;;;;;;1.10;1.10;;;;;;;4.36;67.92;99150.89;103474;1279;109834;-66
2022/01/06 08:02:47;;;;;;;0.90;0.90;;;;;;;4.32;67.58;99153.43;103397;1278;138657;-66
2022/01/06 08:05:15;;;;;;;0.90;0.90;;;;;;;4.32;67.66;99157.99;103749;1278;95893;-65
2022/01/06 08:07:43;;;;;;;0.90;0.90;;;;;;;4.38;67.73;99158.07;103758;1279;137661;-65
2022/01/06 08:10:11;;;;;;;1.00;1.00;;;;;;;4.34;67.90;99159.89;103546;1279;109820;-65
2022/01/06 08:12:39;;;;;;;1.00;1.00;;;;;;;4.33;67.46;99164.48;103469;1279;95239;-66
2022/01/06 08:15:07;;;;;;;1.00;1.00;;;;;;;4.31;67.36;99166.64;103441;1279;138602;-66
2022/01/06 08:17:36;;;;;;;0.90;0.90;;;;;;;4.30;67.57;99170.16;103699;1279;109208;-67
2022/01/06 08:20:06;;;;;;;0.90;0.90;;;;;;;4.31;67.20;99174.56;103646;1279;139025;-65
2022/01/06 08:22:35;;;;;;;0.90;0.90;;;;;;;4.24;67.12;99175.39;103718;1279;95226;-66
2022/01/06 08:25:04;;;;;;;0.90;0.90;;;;;;;4.16;66.87;99178.54;103614;1279;95751;-66
2022/01/06 08:27:32;;;;;;;0.90;0.90;;;;;;;4.17;67.24;99182.38;103398;1279;138381;-66
2022/01/06 08:30:00;;;;;;;1.00;1.00;;;;;;;4.14;67.38;99186.30;103509;1279;109824;-65
2022/01/06 08:32:28;;;;;;;1.00;1.00;;;;;;;4.23;67.43;99186.13;103425;1279;138476;-66
2022/01/06 08:34:56;;;;;;;0.90;0.90;;;;;;;4.29;67.18;99191.80;103565;1279;95485;-67
2022/01/06 08:37:23;;;;;;;0.90;0.90;;;;;;;4.25;66.72;99204.19;103557;1279;108818;-65
2022/01/06 08:39:51;;;;;;;0.90;0.90;;;;;;;4.20;66.67;99204.44;103618;1279;137703;-66
2022/01/06 08:42:19;;;;;;;1.00;1.00;;;;;;;4.16;66.43;99208.04;103567;1279;95967;-65
2022/01/06 08:44:47;;;;;;;0.90;0.90;;;;;;;4.25;66.76;99209.27;103455;1279;139146;-63
2022/01/06 08:47:15;;;;;;;1.10;1.10;;;;;;;4.34;66.43;99211.90;103420;1279;108687;-66
2022/01/06 08:49:42;;;;;;;0.90;0.90;;;;;;;4.39;65.96;99210.95;103430;1279;138426;-66
2022/01/06 08:52:10;;;;;;;0.90;0.90;;;;;;;4.40;65.94;99214.59;103540;1279;95668;-66
2022/01/06 08:54:38;;;;;;;1.00;1.00;;;;;;;4.40;66.01;99224.11;103522;1279;95725;-66
2022/01/06 08:57:06;;;;;;;0.90;0.90;;;;;;;4.45;65.94;99227.67;103836;1279;138957;-66
2022/01/06 08:59:34;;;;;;;0.80;0.80;;;;;;;4.46;65.86;99230.45;103534;1278;109648;-66
2022/01/06 09:02:02;;;;;;;1.00;1.00;;;;;;;4.37;64.96;99231.36;103383;1278;138192;-65
2022/01/06 09:04:30;;;;;;;1.00;1.00;;;;;;;4.29;65.10;99235.20;103526;1279;95238;-66
2022/01/06 09:06:59;;;;;;;1.00;1.00;;;;;;;4.25;65.48;99236.34;103542;1277;108868;-65
2022/01/06 09:09:27;;;;;;;0.90;0.90;;;;;;;4.21;65.37;99237.64;103334;1277;138890;-66
2022/01/06 09:11:55;;;;;;;1.00;1.00;;;;;;;4.14;65.43;99237.23;103496;1279;95271;-66
2022/01/06 09:14:23;;;;;;;1.00;1.00;;;;;;;4.08;65.70;99242.63;103331;1279;137624;-65
2022/01/06 09:16:53;;;;;;;1.10;1.10;;;;;;;4.03;65.77;99244.14;103483;1279;109989;-65
2022/01/06 09:19:21;;;;;;;1.00;1.00;;;;;;;4.09;65.95;99244.20;103765;1279;109185;-64
2022/01/06 09:21:49;;;;;;;1.00;1.00;;;;;;;4.21;65.83;99242.05;103344;1279;138163;-66
2022/01/06 09:24:18;;;;;;;0.90;0.90;;;;;;;4.25;65.78;99241.79;103395;1279;96422;-67
2022/01/06 09:26:46;;;;;;;1.10;1.10;;;;;;;4.30;66.18;99245.55;103322;1279;137615;-66
2022/01/06 09:29:14;;;;;;;0.90;0.90;;;;;;;4.31;65.63;99248.34;103457;1277;109768;-65
2022/01/06 09:31:42;;;;;;;0.90;0.90;;;;;;;4.29;65.74;99256.64;103350;1280;138414;-65
2022/01/06 09:34:10;;;;;;;1.00;1.00;;;;;;;4.20;65.49;99261.55;103464;1277;95381;-65
2022/01/06 09:36:39;;;;;;;0.90;0.90;;;;;;;4.15;65.74;99262.52;103434;1279;109073;-66
2022/01/06 09:39:09;;;;;;;1.00;1.00;;;;;;;4.21;65.88;99264.53;103241;1279;138212;-65
2022/01/06 09:41:37;;;;;;;0.90;0.90;;;;;;;4.22;65.66;99268.02;103509;1279;95573;-66
2022/01/06 09:44:06;;;;;;;0.90;0.90;;;;;;;4.23;65.92;99272.38;103591;1278;138697;-64
2022/01/06 09:46:57;;;;;;;0.90;0.90;;;;;;;4.30;66.02;99274.37;103041;1279;108945;-66
2022/01/06 09:49:25;;;;;;;1.10;1.10;;;;;;;4.31;66.25;99274.52;103573;1278;109577;-67
2022/01/06 09:51:53;;;;;;;0.90;0.90;;;;;;;4.32;65.41;99269.06;103466;1279;138700;-66
2022/01/06 09:54:20;;;;;;;0.90;0.90;;;;;;;4.31;65.71;99272.07;103807;1278;95317;-66
2022/01/06 09:56:48;;;;;;;0.90;0.90;;;;;;;4.27;65.74;99273.70;103591;1277;137583;-67
2022/01/06 09:59:16;;;;;;;1.00;1.00;;;;;;;4.22;65.96;99276.80;103643;1279;110323;-67
2022/01/06 10:01:45;;;;;;;1.00;1.00;;;;;;;4.24;65.99;99274.13;103800;1278;139172;-66
2022/01/06 10:04:25;;;;;;;0.90;0.90;;;;;;;4.28;66.15;99272.63;103731;1278;95659;-67
2022/01/06 10:07:04;;;;;;;0.90;0.90;;;;;;;4.33;66.10;99276.77;103590;1279;109009;-65
2022/01/06 10:09:33;;;;;;;0.90;0.90;;;;;;;4.27;65.78;99278.99;103717;1279;138728;-64
2022/01/06 10:12:10;;;;;;;1.10;1.10;;;;;;;4.24;65.99;99280.29;103688;1279;95737;-67
2022/01/06 10:14:46;;;;;;;0.90;0.90;;;;;;;4.23;66.10;99282.23;103751;1278;138162;-67
2022/01/06 10:17:17;;;;;;;1.00;1.00;;;;;;;4.26;66.27;99285.34;103623;1279;109461;-66
2022/01/06 10:19:45;;;;;;;1.00;1.00;;;;;;;4.21;65.78;99286.83;103625;1279;138524;-65
2022/01/06 10:22:14;;;;;;;1.00;1.00;;;;;;;4.20;66.03;99288.44;103867;1277;95350;-68
2022/01/06 10:24:44;;;;;;;1.00;1.00;;;;;;;4.16;65.90;99292.19;103823;1280;95246;-67
2022/01/06 10:27:14;;;;;;;0.90;0.90;;;;;;;4.16;65.80;99299.56;103742;1278;137421;-66
2022/01/06 10:29:47;;;;;;;0.90;0.90;;;;;;;4.09;65.60;99302.33;103858;1279;107703;-65
2022/01/06 10:32:20;;;;;;;1.00;1.00;;;;;;;3.99;65.64;99305.13;103697;1279;138097;-67
2022/01/06 10:34:50;;;;;;;1.10;1.10;;;;;;;3.92;65.84;99308.08;103815;1278;95750;-66
2022/01/06 10:37:46;;;;;;;0.90;0.90;;;;;;;3.89;65.98;99307.93;103543;1277;108876;-66
2022/01/06 10:40:27;;;;;;;1.00;1.00;;;;;;;3.86;66.11;99306.58;103530;1279;110315;-66
2022/01/06 10:43:05;;;;;;;1.00;1.00;;;;;;;3.89;66.46;99311.11;103563;1279;95921;-68
2022/01/06 10:45:34;;;;;;;1.00;1.00;;;;;;;3.93;66.40;99313.48;103327;1277;138752;-68
2022/01/06 10:48:03;;;;;;;1.00;1.00;;;;;;;3.90;65.98;99318.81;103524;1279;108446;-67
2022/01/06 10:50:41;;;;;;;1.00;1.00;;;;;;;3.85;66.32;99323.98;103487;1277;138051;-67
2022/01/06 10:53:11;;;;;;;1.10;1.10;;;;;;;3.77;67.13;99328.33;103396;1277;95322;-67
2022/01/06 10:55:46;;;;;;;1.10;1.10;;;;;;;3.75;67.61;99332.05;104233;1278;96592;-67
2022/01/06 10:58:19;;;;;;;1.00;1.00;;;;;;;3.77;67.87;99332.02;103391;1278;138824;-67
2022/01/06 11:00:48;;;;;;;1.00;1.00;;;;;;;3.74;68.23;99337.68;103682;1279;108707;-68
2022/01/06 11:03:21;;;;;;;1.20;1.20;;;;;;;3.69;68.68;99338.64;103760;1278;138369;-67
2022/01/06 11:05:53;;;;;;;1.10;1.10;;;;;;;3.67;69.07;99341.82;103618;1280;95177;-68
2022/01/06 11:08:27;;;;;;;1.00;1.00;;;;;;;3.67;68.97;99344.80;103346;1279;138469;-67
2022/01/06 11:13:42;;;;;;;1.10;1.10;;;;;;;3.63;69.51;99340.66;103449;1280;97011;-68
2022/01/06 11:16:14;;;;;;;1.00;1.00;;;;;;;3.74;69.63;99339.26;103321;1278;139868;-67
2022/01/06 11:18:56;;;;;;;1.00;1.00;;;;;;;3.80;69.19;99339.52;103463;1278;108730;-68
2022/01/06 11:21:36;;;;;;;0.90;0.90;;;;;;;3.79;69.33;99343.56;103567;1277;138175;-67
2022/01/06 11:24:15;;;;;;;1.00;1.00;;;;;;;3.76;69.71;99344.84;103783;1277;96699;-68
2022/01/06 11:27:06;;;;;;;1.00;1.00;;;;;;;3.78;69.58;99341.83;103433;1278;138795;-67
2022/01/06 11:29:37;;;;;;;0.90;0.90;;;;;;;3.72;69.66;99347.35;103515;1277;108995;-68
2022/01/06 11:32:23;;;;;;;1.00;1.00;;;;;;;3.77;69.87;99346.42;103567;1277;138210;-68
2022/01/06 11:35:02;;;;;;;1.00;1.00;;;;;;;3.82;69.51;99345.80;103437;1277;95328;-69
2022/01/06 11:37:46;;;;;;;1.00;1.00;;;;;;;3.84;69.60;99349.11;103708;1277;95235;-68
2022/01/06 11:40:16;;;;;;;1.00;1.00;;;;;;;3.83;69.69;99349.12;103400;1278;138223;-69
2022/01/06 11:42:55;;;;;;;0.90;0.90;;;;;;;3.88;69.54;99349.73;103968;1277;110199;-68
2022/01/06 11:45:23;;;;;;;1.00;1.00;;;;;;;3.80;69.59;99353.92;103380;1277;137837;-69
2022/01/06 11:48:07;;;;;;;1.10;1.10;;;;;;;3.80;70.03;99353.39;103575;1277;95665;-69
2022/01/06 11:50:46;;;;;;;1.00;1.00;;;;;;;3.87;70.20;99352.05;103351;1277;138926;-68
2022/01/06 11:53:16;;;;;;;1.00;1.00;;;;;;;3.90;69.69;99353.95;103727;1277;109708;-69